Time;durP1;ratioP1;P1;durP2;ratioP2;P2;SDS_P1;SDS_P2;PMS_P1;PMS_P2;Temp;Humidity;BMP_temperature;BMP_pressure;BME280_temperature;BME280_humidity;BME280_pressure;Samples;Min_cycle;Max_cycle;Signal;HPM_P1;HPM_P2
2022/03/25 03:47:25;;;;;;;1999.90;999.90;;;;;;;;;;6013225;23;20197;-70
2022/03/25 03:50:11;;;;;;;1999.90;999.90;;;;;;;;;;5028146;28;20594;-69
2022/03/25 03:52:56;;;;;;;1999.90;999.90;;;;;;;;;;4992707;28;20213;-70
2022/03/25 03:55:41;;;;;;;1999.90;999.90;;;;;;;;;;5015689;28;20244;-68
2022/03/25 03:58:26;;;;;;;1999.90;999.90;;;;;;;;;;4998944;28;20233;-70
2022/03/25 04:01:11;;;;;;;1999.90;999.90;;;;;;;;;;4992617;28;20217;-70
2022/03/25 04:03:57;;;;;;;1999.90;999.90;;;;;;;;;;4992411;28;20233;-70
2022/03/25 04:06:42;;;;;;;1999.90;999.90;;;;;;;;;;4992764;28;20564;-70
2022/03/25 04:09:28;;;;;;;1999.90;999.90;;;;;;;;;;4972497;28;20716;-70
2022/03/25 04:12:13;;;;;;;1999.90;999.90;;;;;;;;;;4980205;28;20283;-71
2022/03/25 04:14:58;;;;;;;1999.90;999.90;;;;;;;;;;4992700;28;20226;-70
2022/03/25 04:17:44;;;;;;;1999.90;999.90;;;;;;;;;;4991821;28;20225;-70
2022/03/25 04:20:30;;;;;;;1999.90;999.90;;;;;;;;;;4992526;28;20228;-70
2022/03/25 04:23:15;;;;;;;1999.90;999.90;;;;;;;;;;4992577;28;20725;-70
2022/03/25 04:26:02;;;;;;;1999.90;999.90;;;;;;;;;;4992080;28;20229;-68
2022/03/25 04:28:47;;;;;;;1999.90;999.90;;;;;;;;;;4981332;28;20227;-70
2022/03/25 04:31:32;;;;;;;1999.90;999.90;;;;;;;;;;4992137;28;20246;-67
2022/03/25 04:34:17;;;;;;;1999.90;999.90;;;;;;;;;;4972605;28;20466;-70
2022/03/25 04:37:03;;;;;;;1999.90;999.90;;;;;;;;;;4972842;28;20228;-70
2022/03/25 04:39:48;;;;;;;1999.90;999.90;;;;;;;;;;4972284;28;20229;-70
2022/03/25 04:42:33;;;;;;;1999.90;999.90;;;;;;;;;;4981130;28;20209;-70
2022/03/25 04:45:18;;;;;;;1999.90;999.90;;;;;;;;;;4977582;28;20697;-70
2022/03/25 04:48:04;;;;;;;1999.90;999.90;;;;;;;;;;4975820;28;20305;-70
2022/03/25 04:50:48;;;;;;;1999.90;999.90;;;;;;;;;;4991652;28;20237;-70
2022/03/25 04:53:35;;;;;;;1999.90;999.90;;;;;;;;;;4992296;28;20707;-70
2022/03/25 04:56:20;;;;;;;1999.90;999.90;;;;;;;;;;4991915;28;20206;-70
2022/03/25 04:59:05;;;;;;;1999.90;999.90;;;;;;;;;;4991218;28;20246;-69
2022/03/25 05:01:50;;;;;;;1999.90;999.90;;;;;;;;;;4994654;28;20399;-71
2022/03/25 05:04:35;;;;;;;1999.90;999.90;;;;;;;;;;4995916;28;20696;-71
2022/03/25 05:07:20;;;;;;;1999.90;999.90;;;;;;;;;;4995598;28;20285;-70
2022/03/25 05:10:07;;;;;;;1999.90;999.90;;;;;;;;;;4995291;28;20607;-70
2022/03/25 05:12:52;;;;;;;1999.90;999.90;;;;;;;;;;4995654;28;20263;-71
2022/03/25 05:15:37;;;;;;;1999.90;999.90;;;;;;;;;;4995637;28;20579;-70
2022/03/25 05:18:24;;;;;;;1999.90;999.90;;;;;;;;;;4994524;28;20787;-70
2022/03/25 05:21:09;;;;;;;1999.90;999.90;;;;;;;;;;4995546;28;20292;-70
2022/03/25 05:23:53;;;;;;;1999.90;999.90;;;;;;;;;;4995481;28;20219;-68
2022/03/25 05:26:40;;;;;;;1999.90;999.90;;;;;;;;;;4995444;28;20209;-70
2022/03/25 05:29:25;;;;;;;1999.90;999.90;;;;;;;;;;4994316;28;20287;-71
2022/03/25 05:32:11;;;;;;;1999.90;999.90;;;;;;;;;;4995057;28;20211;-71
2022/03/25 05:34:56;;;;;;;1999.90;999.90;;;;;;;;;;4995341;28;20568;-71
2022/03/25 05:37:41;;;;;;;1999.90;999.90;;;;;;;;;;4994711;28;20231;-68
2022/03/25 05:40:26;;;;;;;1999.90;999.90;;;;;;;;;;4994987;28;20208;-68
2022/03/25 05:43:14;;;;;;;1999.90;999.90;;;;;;;;;;4995198;28;20208;-69
2022/03/25 05:45:59;;;;;;;1999.90;999.90;;;;;;;;;;4975601;28;20251;-68
2022/03/25 05:48:44;;;;;;;1999.90;999.90;;;;;;;;;;4974681;28;20292;-70
2022/03/25 05:51:30;;;;;;;1999.90;999.90;;;;;;;;;;4975256;28;20257;-71
2022/03/25 05:54:15;;;;;;;1999.90;999.90;;;;;;;;;;4975431;28;20281;-71
2022/03/25 05:57:00;;;;;;;1999.90;999.90;;;;;;;;;;4975396;28;20205;-71
2022/03/25 05:59:46;;;;;;;1999.90;999.90;;;;;;;;;;4974668;28;20340;-71
2022/03/25 06:02:32;;;;;;;1999.90;999.90;;;;;;;;;;4975243;28;20266;-71
2022/03/25 06:05:18;;;;;;;1999.90;999.90;;;;;;;;;;4975373;28;20271;-71
2022/03/25 06:08:03;;;;;;;1999.90;999.90;;;;;;;;;;4974127;28;20423;-72
2022/03/25 06:10:49;;;;;;;1999.90;999.90;;;;;;;;;;4975053;28;20251;-71
2022/03/25 06:13:34;;;;;;;1999.90;999.90;;;;;;;;;;4974338;28;20273;-71
2022/03/25 06:16:20;;;;;;;1999.90;999.90;;;;;;;;;;4975057;28;20208;-72
2022/03/25 06:19:05;;;;;;;1999.90;999.90;;;;;;;;;;4974191;28;20350;-71
2022/03/25 06:21:50;;;;;;;1999.90;999.90;;;;;;;;;;4975020;28;20211;-69
2022/03/25 06:24:36;;;;;;;1999.90;999.90;;;;;;;;;;4974762;28;20256;-71
2022/03/25 06:27:21;;;;;;;1999.90;999.90;;;;;;;;;;4975313;28;20581;-71
2022/03/25 06:30:06;;;;;;;1999.90;999.90;;;;;;;;;;4974388;28;20206;-68
2022/03/25 06:32:53;;;;;;;1999.90;999.90;;;;;;;;;;4990028;28;20304;-68
2022/03/25 06:35:39;;;;;;;1999.90;999.90;;;;;;;;;;4993416;28;20321;-71
2022/03/25 06:38:24;;;;;;;1999.90;999.90;;;;;;;;;;4993216;28;20219;-70
2022/03/25 06:41:09;;;;;;;1999.90;999.90;;;;;;;;;;4993889;28;20290;-70
2022/03/25 06:43:54;;;;;;;1999.90;999.90;;;;;;;;;;4993972;28;20211;-70
2022/03/25 06:46:39;;;;;;;1999.90;999.90;;;;;;;;;;4993973;28;20215;-70
2022/03/25 06:49:26;;;;;;;1999.90;999.90;;;;;;;;;;4993084;28;20358;-72
2022/03/25 06:52:12;;;;;;;1999.90;999.90;;;;;;;;;;4993551;28;20255;-70
2022/03/25 06:54:57;;;;;;;1999.90;999.90;;;;;;;;;;4993710;28;20207;-71
2022/03/25 06:57:44;;;;;;;1999.90;999.90;;;;;;;;;;4992441;28;20231;-71
2022/03/25 07:00:30;;;;;;;1999.90;999.90;;;;;;;;;;4993665;28;20200;-68
2022/03/25 07:03:15;;;;;;;1999.90;999.90;;;;;;;;;;4993600;28;20659;-69
2022/03/25 07:06:02;;;;;;;1999.90;999.90;;;;;;;;;;4993606;28;20226;-70
2022/03/25 07:08:48;;;;;;;1999.90;999.90;;;;;;;;;;4992516;28;20339;-69
2022/03/25 07:11:33;;;;;;;1999.90;999.90;;;;;;;;;;4982422;28;20248;-69
2022/03/25 07:14:18;;;;;;;1999.90;999.90;;;;;;;;;;4993355;28;20207;-68
2022/03/25 07:17:03;;;;;;;1999.90;999.90;;;;;;;;;;4993303;28;20215;-69
2022/03/25 07:19:49;;;;;;;1999.90;999.90;;;;;;;;;;4992026;28;20203;-68
2022/03/25 07:22:36;;;;;;;1999.90;999.90;;;;;;;;;;4975447;28;20710;-65
2022/03/25 07:25:21;;;;;;;1999.90;999.90;;;;;;;;;;4993096;28;20211;-70
2022/03/25 07:28:07;;;;;;;1999.90;999.90;;;;;;;;;;4992026;28;20231;-69
2022/03/25 07:30:52;;;;;;;1999.90;999.90;;;;;;;;;;4992851;28;20308;-69
2022/03/25 07:33:37;;;;;;;1999.90;999.90;;;;;;;;;;4993308;28;20210;-71
2022/03/25 07:36:22;;;;;;;1999.90;999.90;;;;;;;;;;4993020;28;20204;-72
2022/03/25 07:39:09;;;;;;;1999.90;999.90;;;;;;;;;;4992227;28;20572;-71
2022/03/25 07:41:53;;;;;;;1999.90;999.90;;;;;;;;;;4992934;28;20334;-68
2022/03/25 07:44:39;;;;;;;1999.90;999.90;;;;;;;;;;4999231;28;20274;-70
2022/03/25 07:47:24;;;;;;;1999.90;999.90;;;;;;;;;;5006380;28;20330;-67
2022/03/25 07:50:09;;;;;;;1999.90;999.90;;;;;;;;;;5004684;28;20226;-68
2022/03/25 07:52:55;;;;;;;1999.90;999.90;;;;;;;;;;5006646;28;20222;-68
2022/03/25 07:55:42;;;;;;;1999.90;999.90;;;;;;;;;;5010054;28;20728;-67
2022/03/25 07:58:27;;;;;;;1999.90;999.90;;;;;;;;;;5009162;28;20237;-66
2022/03/25 08:01:11;;;;;;;1999.90;999.90;;;;;;;;;;5004463;28;20226;-67
2022/03/25 08:03:57;;;;;;;1999.90;999.90;;;;;;;;;;5007602;28;20202;-67
2022/03/25 08:06:42;;;;;;;1999.90;999.90;;;;;;;;;;5008178;28;20725;-66
2022/03/25 08:09:27;;;;;;;1999.90;999.90;;;;;;;;;;5009044;28;20223;-67
2022/03/25 08:12:13;;;;;;;1999.90;999.90;;;;;;;;;;5008224;28;20416;-68
2022/03/25 08:14:58;;;;;;;1999.90;999.90;;;;;;;;;;5008620;28;20218;-66
2022/03/25 08:17:48;;;;;;;1999.90;999.90;;;;;;;;;;5004925;28;20331;-68
2022/03/25 08:20:35;;;;;;;1999.90;999.90;;;;;;;;;;5010100;28;20292;-67
2022/03/25 08:29:25;;;;;;;1999.90;999.90;;;;;;;;;;5008867;28;20290;-68
2022/03/25 08:32:10;;;;;;;1999.90;999.90;;;;;;;;;;5008157;28;20222;-68
2022/03/25 08:34:55;;;;;;;1999.90;999.90;;;;;;;;;;5008954;28;21030;-68
2022/03/25 08:37:40;;;;;;;1999.90;999.90;;;;;;;;;;5010674;28;20230;-68
2022/03/25 08:40:26;;;;;;;1999.90;999.90;;;;;;;;;;5012433;28;20232;-68
2022/03/25 08:43:11;;;;;;;1999.90;999.90;;;;;;;;;;5011773;28;20207;-68
2022/03/25 08:45:57;;;;;;;1999.90;999.90;;;;;;;;;;5013922;28;20701;-67
2022/03/25 08:48:42;;;;;;;1999.90;999.90;;;;;;;;;;5006766;28;20707;-68
2022/03/25 08:51:29;;;;;;;1999.90;999.90;;;;;;;;;;5011259;28;20616;-68
2022/03/25 08:54:14;;;;;;;1999.90;999.90;;;;;;;;;;5011743;28;20307;-68
2022/03/25 08:57:00;;;;;;;1999.90;999.90;;;;;;;;;;5013192;28;20291;-66
2022/03/25 08:59:45;;;;;;;1999.90;999.90;;;;;;;;;;5010796;28;20589;-68
2022/03/25 09:02:33;;;;;;;1999.90;999.90;;;;;;;;;;5013432;28;20207;-66
2022/03/25 09:05:18;;;;;;;1999.90;999.90;;;;;;;;;;5013154;28;20687;-69
2022/03/25 09:08:03;;;;;;;1999.90;999.90;;;;;;;;;;5010689;28;20656;-68
2022/03/25 09:10:49;;;;;;;1999.90;999.90;;;;;;;;;;5008987;28;20578;-68
2022/03/25 09:13:33;;;;;;;1999.90;999.90;;;;;;;;;;5013123;28;20411;-68
2022/03/25 09:16:19;;;;;;;1999.90;999.90;;;;;;;;;;5012815;28;20264;-68
2022/03/25 09:19:05;;;;;;;1999.90;999.90;;;;;;;;;;5011562;28;20734;-67
2022/03/25 09:21:50;;;;;;;1999.90;999.90;;;;;;;;;;5006263;28;20633;-68
2022/03/25 09:24:35;;;;;;;1999.90;999.90;;;;;;;;;;5001357;28;20214;-67
2022/03/25 09:27:20;;;;;;;1999.90;999.90;;;;;;;;;;5010716;28;20319;-67
2022/03/25 09:30:05;;;;;;;1999.90;999.90;;;;;;;;;;5011795;28;20207;-66
2022/03/25 09:32:50;;;;;;;1999.90;999.90;;;;;;;;;;5011449;28;20252;-68
2022/03/25 09:35:38;;;;;;;1999.90;999.90;;;;;;;;;;5012216;28;20225;-66
2022/03/25 09:38:23;;;;;;;1999.90;999.90;;;;;;;;;;5011856;28;20310;-67
2022/03/25 09:41:08;;;;;;;1999.90;999.90;;;;;;;;;;5011506;28;20205;-65
2022/03/25 09:43:53;;;;;;;1999.90;999.90;;;;;;;;;;5008884;28;20810;-65
2022/03/25 09:46:41;;;;;;;1999.90;999.90;;;;;;;;;;5011270;28;20744;-66
2022/03/25 09:49:26;;;;;;;1999.90;999.90;;;;;;;;;;5009978;28;20222;-67
2022/03/25 09:52:12;;;;;;;1999.90;999.90;;;;;;;;;;5009056;28;20595;-68
2022/03/25 09:54:57;;;;;;;1999.90;999.90;;;;;;;;;;5012581;28;20350;-68
2022/03/25 09:57:43;;;;;;;1999.90;999.90;;;;;;;;;;5011903;28;20368;-67
2022/03/25 10:00:28;;;;;;;1999.90;999.90;;;;;;;;;;5009038;28;20300;-68
2022/03/25 10:03:13;;;;;;;1999.90;999.90;;;;;;;;;;5008027;28;20211;-68
2022/03/25 10:06:01;;;;;;;1999.90;999.90;;;;;;;;;;5012436;28;20214;-67
2022/03/25 10:08:56;;;;;;;1999.90;999.90;;;;;;;;;;5005960;28;20226;-66
2022/03/25 10:11:42;;;;;;;1999.90;999.90;;;;;;;;;;5010048;28;20285;-67
2022/03/25 10:14:29;;;;;;;1999.90;999.90;;;;;;;;;;5005545;28;20222;-67
2022/03/25 10:17:14;;;;;;;1999.90;999.90;;;;;;;;;;5005553;28;20285;-67
2022/03/25 10:19:59;;;;;;;1999.90;999.90;;;;;;;;;;5010446;28;20209;-69
2022/03/25 10:23:00;;;;;;;1999.90;999.90;;;;;;;;;;5009902;28;20206;-68
2022/03/25 10:25:48;;;;;;;1999.90;999.90;;;;;;;;;;5010453;28;20614;-68
2022/03/25 10:28:40;;;;;;;1999.90;999.90;;;;;;;;;;5010479;28;20268;-67
2022/03/25 10:31:24;;;;;;;1999.90;999.90;;;;;;;;;;5011358;28;20290;-69
2022/03/25 10:34:19;;;;;;;1999.90;999.90;;;;;;;;;;5008502;28;20210;-68
2022/03/25 10:37:05;;;;;;;1999.90;999.90;;;;;;;;;;5008572;28;20217;-68
2022/03/25 10:39:52;;;;;;;1999.90;999.90;;;;;;;;;;5009922;28;20213;-69
2022/03/25 10:42:58;;;;;;;1999.90;999.90;;;;;;;;;;5011245;28;20206;-70
2022/03/25 10:45:43;;;;;;;1999.90;999.90;;;;;;;;;;5008695;28;20400;-69
2022/03/25 10:48:28;;;;;;;1999.90;999.90;;;;;;;;;;5006034;28;20242;-67
2022/03/25 10:51:13;;;;;;;1999.90;999.90;;;;;;;;;;5010123;28;20229;-69
2022/03/25 10:53:59;;;;;;;1999.90;999.90;;;;;;;;;;5008938;28;20207;-68
2022/03/25 10:56:47;;;;;;;1999.90;999.90;;;;;;;;;;5010975;28;20292;-68
2022/03/25 10:59:34;;;;;;;1999.90;999.90;;;;;;;;;;5005470;28;20211;-68
2022/03/25 11:02:19;;;;;;;1999.90;999.90;;;;;;;;;;5002119;28;20203;-67
2022/03/25 11:05:05;;;;;;;1999.90;999.90;;;;;;;;;;5010469;28;20206;-69
2022/03/25 11:07:51;;;;;;;1999.90;999.90;;;;;;;;;;5007946;28;20371;-66
2022/03/25 11:10:37;;;;;;;1999.90;999.90;;;;;;;;;;5008005;28;20234;-66
2022/03/25 11:13:23;;;;;;;1999.90;999.90;;;;;;;;;;4999808;28;20239;-68
2022/03/25 11:16:13;;;;;;;1999.90;999.90;;;;;;;;;;5008829;28;20499;-66
2022/03/25 11:18:58;;;;;;;1999.90;999.90;;;;;;;;;;5009788;28;20349;-66
2022/03/25 11:21:44;;;;;;;1999.90;999.90;;;;;;;;;;5010625;28;20835;-67
2022/03/25 11:24:31;;;;;;;1999.90;999.90;;;;;;;;;;5009026;28;20587;-67
2022/03/25 11:27:17;;;;;;;1999.90;999.90;;;;;;;;;;5005348;28;20226;-68
2022/03/25 11:30:04;;;;;;;1999.90;999.90;;;;;;;;;;5005810;28;20708;-68
2022/03/25 11:33:02;;;;;;;1999.90;999.90;;;;;;;;;;5005187;28;20692;-67
2022/03/25 11:35:47;;;;;;;1999.90;999.90;;;;;;;;;;5009485;28;20231;-66
2022/03/25 11:38:32;;;;;;;1999.90;999.90;;;;;;;;;;5009436;28;20385;-68
2022/03/25 11:41:21;;;;;;;1999.90;999.90;;;;;;;;;;5009144;28;20668;-68
2022/03/25 11:44:17;;;;;;;1999.90;999.90;;;;;;;;;;5001455;28;20311;-67
2022/03/25 11:47:18;;;;;;;1999.90;999.90;;;;;;;;;;5008677;28;20215;-66
2022/03/25 11:50:17;;;;;;;1999.90;999.90;;;;;;;;;;5002312;28;20207;-67
2022/03/25 11:53:30;;;;;;;1999.90;999.90;;;;;;;;;;5005836;28;20779;-67
2022/03/25 11:56:15;;;;;;;1999.90;999.90;;;;;;;;;;5005380;28;20203;-66
2022/03/25 11:59:01;;;;;;;1999.90;999.90;;;;;;;;;;5008567;28;20257;-67
2022/03/25 12:01:48;;;;;;;1999.90;999.90;;;;;;;;;;5009776;28;20716;-66
2022/03/25 12:04:34;;;;;;;1999.90;999.90;;;;;;;;;;5005079;28;20281;-66
2022/03/25 12:07:20;;;;;;;1999.90;999.90;;;;;;;;;;5005042;28;20357;-67
2022/03/25 12:10:06;;;;;;;1999.90;999.90;;;;;;;;;;5000849;28;20230;-69
2022/03/25 12:12:52;;;;;;;1999.90;999.90;;;;;;;;;;5005632;28;20585;-68
2022/03/25 12:15:41;;;;;;;1999.90;999.90;;;;;;;;;;5008097;28;20266;-68
2022/03/25 12:18:44;;;;;;;1999.90;999.90;;;;;;;;;;5009217;28;20580;-68
2022/03/25 12:21:45;;;;;;;1999.90;999.90;;;;;;;;;;5008828;28;20210;-68
2022/03/25 12:24:31;;;;;;;1999.90;999.90;;;;;;;;;;5006880;28;20225;-68
2022/03/25 12:27:18;;;;;;;1999.90;999.90;;;;;;;;;;5009728;28;20249;-67
2022/03/25 12:30:03;;;;;;;1999.90;999.90;;;;;;;;;;5009745;28;20275;-68
2022/03/25 12:32:48;;;;;;;1999.90;999.90;;;;;;;;;;5009569;28;20748;-69
2022/03/25 12:35:33;;;;;;;1999.90;999.90;;;;;;;;;;5009908;28;20210;-67
2022/03/25 12:38:19;;;;;;;1999.90;999.90;;;;;;;;;;5007343;28;20297;-66
2022/03/25 12:41:04;;;;;;;1999.90;999.90;;;;;;;;;;5004809;28;20206;-67
2022/03/25 12:43:58;;;;;;;1999.90;999.90;;;;;;;;;;5005799;28;20202;-67
2022/03/25 12:46:43;;;;;;;1999.90;999.90;;;;;;;;;;5007564;28;20416;-67
2022/03/25 12:49:28;;;;;;;1999.90;999.90;;;;;;;;;;5006314;28;20349;-70
2022/03/25 12:52:12;;;;;;;1999.90;999.90;;;;;;;;;;5008585;28;20236;-67
2022/03/25 12:55:06;;;;;;;1999.90;999.90;;;;;;;;;;5007772;28;20206;-68
2022/03/25 12:57:51;;;;;;;1999.90;999.90;;;;;;;;;;5004468;28;20273;-67
2022/03/25 13:00:38;;;;;;;1999.90;999.90;;;;;;;;;;5006133;28;20302;-66
2022/03/25 13:03:23;;;;;;;1999.90;999.90;;;;;;;;;;5008628;28;20199;-67
2022/03/25 13:06:12;;;;;;;1999.90;999.90;;;;;;;;;;5009355;28;20805;-67
2022/03/25 13:09:00;;;;;;;1999.90;999.90;;;;;;;;;;5008611;28;20234;-67
2022/03/25 13:11:52;;;;;;;1999.90;999.90;;;;;;;;;;5009305;28;20212;-67
2022/03/25 13:14:37;;;;;;;1999.90;999.90;;;;;;;;;;5009365;28;20226;-68
2022/03/25 13:17:27;;;;;;;1999.90;999.90;;;;;;;;;;5008816;28;20231;-67
2022/03/25 13:20:14;;;;;;;1999.90;999.90;;;;;;;;;;5004629;28;20257;-68
2022/03/25 13:23:01;;;;;;;1999.90;999.90;;;;;;;;;;5010155;28;20249;-67
2022/03/25 13:25:47;;;;;;;1999.90;999.90;;;;;;;;;;5012757;28;20203;-67
2022/03/25 13:28:34;;;;;;;1999.90;999.90;;;;;;;;;;5011533;28;20322;-66
2022/03/25 13:31:19;;;;;;;1999.90;999.90;;;;;;;;;;5012036;28;20203;-67
2022/03/25 13:34:06;;;;;;;1999.90;999.90;;;;;;;;;;5012421;28;20234;-68
2022/03/25 13:36:52;;;;;;;1999.90;999.90;;;;;;;;;;5007987;28;20207;-68
2022/03/25 13:39:39;;;;;;;1999.90;999.90;;;;;;;;;;5007966;28;20352;-68
2022/03/25 13:42:31;;;;;;;1999.90;999.90;;;;;;;;;;5008170;28;21462;-68
2022/03/25 13:45:19;;;;;;;1999.90;999.90;;;;;;;;;;5003154;28;20199;-68
2022/03/25 13:48:05;;;;;;;1999.90;999.90;;;;;;;;;;5010592;28;20551;-68
2022/03/25 13:50:53;;;;;;;1999.90;999.90;;;;;;;;;;5007522;28;20296;-69
2022/03/25 13:53:39;;;;;;;1999.90;999.90;;;;;;;;;;5010643;28;20577;-68
2022/03/25 13:56:24;;;;;;;1999.90;999.90;;;;;;;;;;5011911;28;20579;-67
2022/03/25 13:59:11;;;;;;;1999.90;999.90;;;;;;;;;;4995636;28;20258;-68
2022/03/25 14:01:57;;;;;;;1999.90;999.90;;;;;;;;;;4981299;28;20191;-69
2022/03/25 14:04:42;;;;;;;1999.90;999.90;;;;;;;;;;4994341;28;20294;-68
2022/03/25 14:07:28;;;;;;;1999.90;999.90;;;;;;;;;;4994258;28;20258;-68
2022/03/25 14:10:14;;;;;;;1999.90;999.90;;;;;;;;;;4994355;28;20215;-67
2022/03/25 14:13:03;;;;;;;1999.90;999.90;;;;;;;;;;4993143;28;20223;-68
2022/03/25 14:15:48;;;;;;;1999.90;999.90;;;;;;;;;;5005879;28;20195;-68
2022/03/25 14:18:34;;;;;;;1999.90;999.90;;;;;;;;;;5004827;28;20477;-69
2022/03/25 14:21:26;;;;;;;1999.90;999.90;;;;;;;;;;4998206;28;20214;-69
2022/03/25 14:24:34;;;;;;;1999.90;999.90;;;;;;;;;;5002035;28;20206;-69
2022/03/25 14:27:19;;;;;;;1999.90;999.90;;;;;;;;;;5002693;28;20229;-67
2022/03/25 14:30:04;;;;;;;1999.90;999.90;;;;;;;;;;5004522;28;20288;-69
2022/03/25 14:32:51;;;;;;;1999.90;999.90;;;;;;;;;;5003044;28;20218;-68
2022/03/25 14:35:36;;;;;;;1999.90;999.90;;;;;;;;;;5001949;28;20289;-67
2022/03/25 14:38:20;;;;;;;1999.90;999.90;;;;;;;;;;5005140;28;20354;-69
2022/03/25 14:41:07;;;;;;;1999.90;999.90;;;;;;;;;;5002731;28;20211;-68
2022/03/25 14:43:52;;;;;;;1999.90;999.90;;;;;;;;;;5004700;28;20222;-68
2022/03/25 14:46:41;;;;;;;1999.90;999.90;;;;;;;;;;5006207;28;20227;-69
2022/03/25 14:49:28;;;;;;;1999.90;999.90;;;;;;;;;;5002409;28;20853;-68
2022/03/25 14:52:13;;;;;;;1999.90;999.90;;;;;;;;;;5010456;28;20281;-69
2022/03/25 14:54:58;;;;;;;1999.90;999.90;;;;;;;;;;5009329;28;20334;-68
2022/03/25 14:57:44;;;;;;;1999.90;999.90;;;;;;;;;;5010265;28;20235;-68
2022/03/25 15:00:29;;;;;;;1999.90;999.90;;;;;;;;;;5010924;28;20213;-68
2022/03/25 15:03:14;;;;;;;1999.90;999.90;;;;;;;;;;5011015;28;20748;-68
2022/03/25 15:05:59;;;;;;;1999.90;999.90;;;;;;;;;;5010965;28;20206;-68
2022/03/25 15:08:44;;;;;;;1999.90;999.90;;;;;;;;;;5009677;28;20226;-68
2022/03/25 15:11:30;;;;;;;1999.90;999.90;;;;;;;;;;5010580;28;20680;-68
2022/03/25 15:14:16;;;;;;;1999.90;999.90;;;;;;;;;;5003069;28;20277;-69
2022/03/25 15:17:01;;;;;;;1999.90;999.90;;;;;;;;;;5010713;28;20940;-68
2022/03/25 15:19:46;;;;;;;1999.90;999.90;;;;;;;;;;5007912;28;20930;-68
2022/03/25 15:22:32;;;;;;;1999.90;999.90;;;;;;;;;;5008771;28;20211;-68
2022/03/25 15:25:18;;;;;;;1999.90;999.90;;;;;;;;;;5010437;28;20245;-69
2022/03/25 15:28:04;;;;;;;1999.90;999.90;;;;;;;;;;5009736;28;20346;-68
2022/03/25 15:36:56;;;;;;;1999.90;999.90;;;;;;;;;;5010324;28;20285;-67
2022/03/25 15:40:00;;;;;;;1999.90;999.90;;;;;;;;;;5007199;28;20202;-67
2022/03/25 15:42:45;;;;;;;1999.90;999.90;;;;;;;;;;5009029;28;20217;-68
2022/03/25 15:45:30;;;;;;;1999.90;999.90;;;;;;;;;;5010238;28;20293;-68
2022/03/25 15:48:16;;;;;;;1999.90;999.90;;;;;;;;;;5008543;28;20450;-68
2022/03/25 15:51:01;;;;;;;1999.90;999.90;;;;;;;;;;5010156;28;20341;-68
2022/03/25 15:53:46;;;;;;;1999.90;999.90;;;;;;;;;;5009943;28;20261;-68
2022/03/25 15:56:31;;;;;;;1999.90;999.90;;;;;;;;;;5009895;28;20293;-67
2022/03/25 15:59:16;;;;;;;1999.90;999.90;;;;;;;;;;5008797;28;20231;-69
2022/03/25 16:02:01;;;;;;;1999.90;999.90;;;;;;;;;;5006483;28;20205;-68
2022/03/25 16:04:47;;;;;;;1999.90;999.90;;;;;;;;;;5010047;28;20590;-68
2022/03/25 16:07:32;;;;;;;1999.90;999.90;;;;;;;;;;5006304;28;20348;-67
2022/03/25 16:10:17;;;;;;;1999.90;999.90;;;;;;;;;;5006843;28;20211;-68
2022/03/25 16:13:03;;;;;;;1999.90;999.90;;;;;;;;;;5005678;28;20218;-68
2022/03/25 16:15:49;;;;;;;1999.90;999.90;;;;;;;;;;5007876;28;20201;-69
2022/03/25 16:18:34;;;;;;;1999.90;999.90;;;;;;;;;;5009161;28;20743;-67
2022/03/25 16:21:20;;;;;;;1999.90;999.90;;;;;;;;;;5008585;28;20209;-68
2022/03/25 16:24:06;;;;;;;1999.90;999.90;;;;;;;;;;5008627;28;20214;-69
2022/03/25 16:26:52;;;;;;;1999.90;999.90;;;;;;;;;;5008595;28;20221;-67
2022/03/25 16:29:37;;;;;;;1999.90;999.90;;;;;;;;;;5007283;28;20792;-67
2022/03/25 16:32:22;;;;;;;1999.90;999.90;;;;;;;;;;5009846;28;20699;-68
2022/03/25 16:35:07;;;;;;;1999.90;999.90;;;;;;;;;;5010193;28;20198;-68
2022/03/25 16:37:54;;;;;;;1999.90;999.90;;;;;;;;;;5009144;28;20226;-68
2022/03/25 16:40:39;;;;;;;1999.90;999.90;;;;;;;;;;5009345;28;21011;-69
2022/03/25 16:43:25;;;;;;;1999.90;999.90;;;;;;;;;;5009750;28;20206;-68
2022/03/25 16:46:10;;;;;;;1999.90;999.90;;;;;;;;;;5010028;28;20749;-69
2022/03/25 16:48:55;;;;;;;1999.90;999.90;;;;;;;;;;5007986;28;20440;-69
2022/03/25 16:51:40;;;;;;;1999.90;999.90;;;;;;;;;;5009345;28;20211;-70
2022/03/25 16:54:26;;;;;;;1999.90;999.90;;;;;;;;;;5009484;28;20230;-68
2022/03/25 16:57:12;;;;;;;1999.90;999.90;;;;;;;;;;5009236;28;20221;-69
2022/03/25 16:59:57;;;;;;;1999.90;999.90;;;;;;;;;;5011316;28;20209;-69
2022/03/25 17:02:43;;;;;;;1999.90;999.90;;;;;;;;;;5012253;28;20365;-69
2022/03/25 17:05:28;;;;;;;1999.90;999.90;;;;;;;;;;5013463;28;20222;-71
2022/03/25 17:08:13;;;;;;;1999.90;999.90;;;;;;;;;;5012310;28;20218;-70
2022/03/25 17:10:59;;;;;;;1999.90;999.90;;;;;;;;;;5012435;28;20213;-66
2022/03/25 17:13:44;;;;;;;1999.90;999.90;;;;;;;;;;5010921;28;20226;-69
2022/03/25 17:16:29;;;;;;;1999.90;999.90;;;;;;;;;;5013168;28;20211;-69
2022/03/25 17:19:14;;;;;;;1999.90;999.90;;;;;;;;;;5012233;28;20891;-68
2022/03/25 17:21:59;;;;;;;1999.90;999.90;;;;;;;;;;5011907;28;20191;-69
2022/03/25 17:24:44;;;;;;;1999.90;999.90;;;;;;;;;;5008790;28;20197;-70
2022/03/25 17:27:30;;;;;;;1999.90;999.90;;;;;;;;;;5011607;28;20226;-68
2022/03/25 17:30:15;;;;;;;1999.90;999.90;;;;;;;;;;5012679;28;20215;-69
2022/03/25 17:33:05;;;;;;;1999.90;999.90;;;;;;;;;;5012214;28;20575;-69
2022/03/25 17:35:50;;;;;;;1999.90;999.90;;;;;;;;;;5008659;28;20215;-69
2022/03/25 17:38:37;;;;;;;1999.90;999.90;;;;;;;;;;5002651;28;20235;-69
2022/03/25 17:41:22;;;;;;;1999.90;999.90;;;;;;;;;;5003924;28;20210;-68
2022/03/25 17:44:08;;;;;;;1999.90;999.90;;;;;;;;;;4999812;28;20696;-69
2022/03/25 17:46:53;;;;;;;1999.90;999.90;;;;;;;;;;5002827;28;20623;-69
2022/03/25 17:49:38;;;;;;;1999.90;999.90;;;;;;;;;;5004333;28;20226;-67
2022/03/25 17:52:23;;;;;;;1999.90;999.90;;;;;;;;;;5000546;28;20646;-68
2022/03/25 17:55:09;;;;;;;1999.90;999.90;;;;;;;;;;5006648;28;20358;-68
2022/03/25 17:57:54;;;;;;;1999.90;999.90;;;;;;;;;;5007135;28;20792;-69
2022/03/25 18:00:41;;;;;;;1999.90;999.90;;;;;;;;;;5012219;28;20249;-69
2022/03/25 18:03:26;;;;;;;1999.90;999.90;;;;;;;;;;5009978;28;20214;-69
2022/03/25 18:06:10;;;;;;;1999.90;999.90;;;;;;;;;;5009156;28;20207;-69
2022/03/25 18:08:56;;;;;;;1999.90;999.90;;;;;;;;;;5009725;28;20235;-69
2022/03/25 18:11:41;;;;;;;1999.90;999.90;;;;;;;;;;5011681;28;20692;-68
2022/03/25 18:14:27;;;;;;;1999.90;999.90;;;;;;;;;;5011989;28;20342;-67
2022/03/25 18:17:13;;;;;;;1999.90;999.90;;;;;;;;;;5011698;28;20293;-68
2022/03/25 18:19:58;;;;;;;1999.90;999.90;;;;;;;;;;5010526;28;20223;-68
2022/03/25 18:22:43;;;;;;;1999.90;999.90;;;;;;;;;;5010890;28;20599;-68
2022/03/25 18:25:28;;;;;;;1999.90;999.90;;;;;;;;;;5011120;28;20210;-69
2022/03/25 18:28:15;;;;;;;1999.90;999.90;;;;;;;;;;5003895;28;20461;-68
2022/03/25 18:31:00;;;;;;;1999.90;999.90;;;;;;;;;;5001945;28;20301;-67
2022/03/25 18:33:46;;;;;;;1999.90;999.90;;;;;;;;;;5003292;28;20222;-68
2022/03/25 18:36:31;;;;;;;1999.90;999.90;;;;;;;;;;5003408;28;20270;-68
2022/03/25 18:39:16;;;;;;;1999.90;999.90;;;;;;;;;;5001632;28;20230;-68
2022/03/25 18:42:01;;;;;;;1999.90;999.90;;;;;;;;;;5002420;28;20305;-68
2022/03/25 18:44:46;;;;;;;1999.90;999.90;;;;;;;;;;5002137;28;20262;-66
2022/03/25 18:47:31;;;;;;;1999.90;999.90;;;;;;;;;;5002477;28;20377;-68
2022/03/25 18:50:17;;;;;;;1999.90;999.90;;;;;;;;;;5004969;28;20933;-68
2022/03/25 18:53:03;;;;;;;1999.90;999.90;;;;;;;;;;5010913;28;20261;-69
2022/03/25 18:55:48;;;;;;;1999.90;999.90;;;;;;;;;;5010922;28;20222;-69
2022/03/25 18:58:33;;;;;;;1999.90;999.90;;;;;;;;;;5006751;28;20321;-65
2022/03/25 19:01:18;;;;;;;1999.90;999.90;;;;;;;;;;5010030;28;20297;-68
2022/03/25 19:04:02;;;;;;;1999.90;999.90;;;;;;;;;;5008412;28;20218;-69
2022/03/25 19:06:50;;;;;;;1999.90;999.90;;;;;;;;;;5010582;28;20301;-68
2022/03/25 19:09:35;;;;;;;1999.90;999.90;;;;;;;;;;5009809;28;20218;-69
2022/03/25 19:12:20;;;;;;;1999.90;999.90;;;;;;;;;;5010725;28;20701;-69
2022/03/25 19:15:06;;;;;;;1999.90;999.90;;;;;;;;;;5005511;28;20770;-68
2022/03/25 19:17:50;;;;;;;1999.90;999.90;;;;;;;;;;5010077;28;20229;-68
2022/03/25 19:20:38;;;;;;;1999.90;999.90;;;;;;;;;;5007317;28;20206;-68
2022/03/25 19:23:25;;;;;;;1999.90;999.90;;;;;;;;;;5009622;28;20341;-68
2022/03/25 19:26:11;;;;;;;1999.90;999.90;;;;;;;;;;5005165;28;20210;-68